Main page
METAR-TAF:

METAR-TAF

Airports :

Base Aérea de Alcantarilla

Murcia, Spain

latitude: 37-57N, longitude: 001-14W, elevation: 75 m

Current weather observation

The report was made 7 hours and 47 minutes ago, at 18:00 UTC
Wind 8 kt from the Southeast
Temperature 30°C
Humidity 29%
Pressure 1016 hPa
Visibility 10 km or more
no clouds below 1500 m and no cumulonimbus

METAR: LERI 211800Z 14008KT CAVOK 30/10 Q1016 NOSIG

Time: 03:47 (01:47 UTC)

Forecast

The report was made 14 hours and 47 minutes ago, at 11:00 UTC
Forecast valid from 21 at 12 UTC to 21 at 21 UTC
Wind 3 kt from the North/Northwest
Visibility 10 km or more
no clouds below 1500 m and no cumulonimbus
Becoming
from 21 at 12 UTC to 21 at 14 UTC
Wind 10 kt from the East

TAF: LERI 211100Z 2112/2121 33003KT CAVOK BECMG 2112/2114 10010KT

Weather observations and forecasts of more than 4000 airports (METAR and TAF reports).

The available stations are represented by yellow and red dots on the map.

Hover mouse over dot to see the name of the station.

Then click to see weather observations and forecasts.

To change the map : click on the green buttons with a black cross to zoom in, on the green button with a dash to zoom out, or on the green arrows for adjacent maps.


METAR-TAF: